sensor_id;sensor_type;location;lat;lon;timestamp;temperature;humidity
27423;DHT22;14878;50.778;0.258;2022-09-17T00:00:07;10.80;99.90
27423;DHT22;14878;50.778;0.258;2022-09-17T00:01:17;10.80;99.90
27423;DHT22;14878;50.778;0.258;2022-09-17T00:02:19;10.80;99.90
27423;DHT22;14878;50.778;0.258;2022-09-17T00:03:19;10.80;99.90
27423;DHT22;14878;50.778;0.258;2022-09-17T00:04:20;10.70;99.90
27423;DHT22;14878;50.778;0.258;2022-09-17T00:05:22;10.60;99.90
27423;DHT22;14878;50.778;0.258;2022-09-17T00:06:24;10.60;99.90
27423;DHT22;14878;50.778;0.258;2022-09-17T00:07:25;10.80;99.90
27423;DHT22;14878;50.778;0.258;2022-09-17T00:08:26;10.90;99.90
27423;DHT22;14878;50.778;0.258;2022-09-17T00:09:27;10.60;99.90
27423;DHT22;14878;50.778;0.258;2022-09-17T00:10:28;10.60;99.90
27423;DHT22;14878;50.778;0.258;2022-09-17T00:11:31;10.50;99.90
27423;DHT22;14878;50.778;0.258;2022-09-17T00:12:32;10.60;99.90
27423;DHT22;14878;50.778;0.258;2022-09-17T00:13:33;10.50;99.90
27423;DHT22;14878;50.778;0.258;2022-09-17T00:14:34;10.50;99.90
27423;DHT22;14878;50.778;0.258;2022-09-17T00:15:43;10.50;99.90
27423;DHT22;14878;50.778;0.258;2022-09-17T00:16:46;10.60;99.90
27423;DHT22;14878;50.778;0.258;2022-09-17T00:17:47;10.50;99.90
27423;DHT22;14878;50.778;0.258;2022-09-17T00:18:47;10.50;99.90
27423;DHT22;14878;50.778;0.258;2022-09-17T00:19:48;10.40;99.90
27423;DHT22;14878;50.778;0.258;2022-09-17T00:20:52;10.50;99.90
27423;DHT22;14878;50.778;0.258;2022-09-17T00:21:53;10.50;99.90
27423;DHT22;14878;50.778;0.258;2022-09-17T00:22:54;10.50;99.90
27423;DHT22;14878;50.778;0.258;2022-09-17T00:23:57;10.40;99.90
27423;DHT22;14878;50.778;0.258;2022-09-17T00:24:58;10.50;99.90
27423;DHT22;14878;50.778;0.258;2022-09-17T00:25:58;10.50;99.90
27423;DHT22;14878;50.778;0.258;2022-09-17T00:27:03;10.60;99.90
27423;DHT22;14878;50.778;0.258;2022-09-17T00:28:04;10.60;99.90
27423;DHT22;14878;50.778;0.258;2022-09-17T00:29:05;10.40;99.90
27423;DHT22;14878;50.778;0.258;2022-09-17T00:30:07;10.30;99.90
27423;DHT22;14878;50.778;0.258;2022-09-17T00:31:08;10.60;99.90
27423;DHT22;14878;50.778;0.258;2022-09-17T00:32:09;10.50;99.90
27423;DHT22;14878;50.778;0.258;2022-09-17T00:33:12;10.50;99.90
27423;DHT22;14878;50.778;0.258;2022-09-17T00:34:13;10.50;99.90
27423;DHT22;14878;50.778;0.258;2022-09-17T00:35:14;10.50;99.90
27423;DHT22;14878;50.778;0.258;2022-09-17T00:36:15;10.50;99.90
27423;DHT22;14878;50.778;0.258;2022-09-17T00:37:19;10.50;99.90
27423;DHT22;14878;50.778;0.258;2022-09-17T00:38:20;10.50;99.90
27423;DHT22;14878;50.778;0.258;2022-09-17T00:39:21;10.50;99.90
27423;DHT22;14878;50.778;0.258;2022-09-17T00:40:22;10.40;99.90
27423;DHT22;14878;50.778;0.258;2022-09-17T00:41:25;10.50;99.90
27423;DHT22;14878;50.778;0.258;2022-09-17T00:42:26;10.50;99.90
27423;DHT22;14878;50.778;0.258;2022-09-17T00:43:54;10.50;99.90
27423;DHT22;14878;50.778;0.258;2022-09-17T00:44:56;10.50;99.90
27423;DHT22;14878;50.778;0.258;2022-09-17T00:45:57;10.50;99.90
27423;DHT22;14878;50.778;0.258;2022-09-17T00:46:58;10.60;99.90
27423;DHT22;14878;50.778;0.258;2022-09-17T00:48:02;10.50;99.90
27423;DHT22;14878;50.778;0.258;2022-09-17T00:49:12;10.50;99.90
27423;DHT22;14878;50.778;0.258;2022-09-17T00:50:18;10.50;99.90
27423;DHT22;14878;50.778;0.258;2022-09-17T00:51:24;10.40;99.90
27423;DHT22;14878;50.778;0.258;2022-09-17T00:52:36;10.40;99.90
27423;DHT22;14878;50.778;0.258;2022-09-17T00:53:39;10.40;99.90
27423;DHT22;14878;50.778;0.258;2022-09-17T00:54:45;10.50;99.90
27423;DHT22;14878;50.778;0.258;2022-09-17T00:57:25;10.40;99.90
27423;DHT22;14878;50.778;0.258;2022-09-17T00:58:27;10.50;99.90
27423;DHT22;14878;50.778;0.258;2022-09-17T00:59:29;10.40;99.90
27423;DHT22;14878;50.778;0.258;2022-09-17T01:00:30;11.00;99.90
27423;DHT22;14878;50.778;0.258;2022-09-17T01:01:32;10.40;99.90
27423;DHT22;14878;50.778;0.258;2022-09-17T01:02:33;10.30;99.90
27423;DHT22;14878;50.778;0.258;2022-09-17T01:03:34;10.40;99.90
27423;DHT22;14878;50.778;0.258;2022-09-17T01:04:35;10.40;99.90
27423;DHT22;14878;50.778;0.258;2022-09-17T01:06:52;10.40;99.90
27423;DHT22;14878;50.778;0.258;2022-09-17T01:11:55;10.30;99.90
27423;DHT22;14878;50.778;0.258;2022-09-17T01:13:15;10.30;99.90
27423;DHT22;14878;50.778;0.258;2022-09-17T01:15:50;10.30;99.90
27423;DHT22;14878;50.778;0.258;2022-09-17T01:17:01;10.30;99.90
27423;DHT22;14878;50.778;0.258;2022-09-17T01:21:37;10.20;99.90
27423;DHT22;14878;50.778;0.258;2022-09-17T01:23:01;10.30;99.90
27423;DHT22;14878;50.778;0.258;2022-09-17T01:25:23;10.00;99.90
27423;DHT22;14878;50.778;0.258;2022-09-17T01:32:14;10.10;99.90
27423;DHT22;14878;50.778;0.258;2022-09-17T01:34:38;10.00;99.90
27423;DHT22;14878;50.778;0.258;2022-09-17T01:36:56;11.60;99.90
27423;DHT22;14878;50.778;0.258;2022-09-17T01:38:15;10.70;99.90
27423;DHT22;14878;50.778;0.258;2022-09-17T01:40:07;10.10;99.90
27423;DHT22;14878;50.778;0.258;2022-09-17T01:41:11;10.00;99.90
27423;DHT22;14878;50.778;0.258;2022-09-17T01:42:29;10.00;99.90
27423;DHT22;14878;50.778;0.258;2022-09-17T01:43:35;9.90;99.90
27423;DHT22;14878;50.778;0.258;2022-09-17T01:46:21;10.00;99.90
27423;DHT22;14878;50.778;0.258;2022-09-17T01:47:41;9.80;99.90
27423;DHT22;14878;50.778;0.258;2022-09-17T01:48:46;9.80;99.90
27423;DHT22;14878;50.778;0.258;2022-09-17T01:49:52;9.70;99.90
27423;DHT22;14878;50.778;0.258;2022-09-17T01:51:04;9.60;99.90
27423;DHT22;14878;50.778;0.258;2022-09-17T01:52:08;9.70;99.90
27423;DHT22;14878;50.778;0.258;2022-09-17T01:53:11;9.60;99.90
27423;DHT22;14878;50.778;0.258;2022-09-17T01:54:26;9.70;99.90
27423;DHT22;14878;50.778;0.258;2022-09-17T01:55:32;9.60;99.90
27423;DHT22;14878;50.778;0.258;2022-09-17T01:56:54;9.40;99.90
27423;DHT22;14878;50.778;0.258;2022-09-17T01:58:07;9.40;99.90
27423;DHT22;14878;50.778;0.258;2022-09-17T01:59:15;9.40;99.90
27423;DHT22;14878;50.778;0.258;2022-09-17T02:00:19;9.20;99.90
27423;DHT22;14878;50.778;0.258;2022-09-17T02:01:23;9.40;99.90
27423;DHT22;14878;50.778;0.258;2022-09-17T02:03:07;9.40;99.90
27423;DHT22;14878;50.778;0.258;2022-09-17T02:04:18;9.40;99.90
27423;DHT22;14878;50.778;0.258;2022-09-17T02:05:44;9.30;99.90
27423;DHT22;14878;50.778;0.258;2022-09-17T02:06:51;9.40;99.90
27423;DHT22;14878;50.778;0.258;2022-09-17T02:07:57;9.40;99.90
27423;DHT22;14878;50.778;0.258;2022-09-17T02:09:07;9.30;99.90
27423;DHT22;14878;50.778;0.258;2022-09-17T02:10:18;9.30;99.90
27423;DHT22;14878;50.778;0.258;2022-09-17T02:11:20;9.40;99.90
27423;DHT22;14878;50.778;0.258;2022-09-17T02:12:26;9.50;99.90
27423;DHT22;14878;50.778;0.258;2022-09-17T02:13:37;9.40;99.90
27423;DHT22;14878;50.778;0.258;2022-09-17T02:14:48;9.40;99.90
27423;DHT22;14878;50.778;0.258;2022-09-17T02:15:56;9.60;99.90
27423;DHT22;14878;50.778;0.258;2022-09-17T02:17:12;9.40;99.90
27423;DHT22;14878;50.778;0.258;2022-09-17T02:19:40;9.50;99.90
27423;DHT22;14878;50.778;0.258;2022-09-17T02:20:45;9.50;99.90
27423;DHT22;14878;50.778;0.258;2022-09-17T02:22:01;9.50;99.90
27423;DHT22;14878;50.778;0.258;2022-09-17T02:23:10;9.60;99.90
27423;DHT22;14878;50.778;0.258;2022-09-17T02:24:33;9.60;99.90
27423;DHT22;14878;50.778;0.258;2022-09-17T02:25:49;9.70;99.90
27423;DHT22;14878;50.778;0.258;2022-09-17T02:28:50;9.70;99.90
27423;DHT22;14878;50.778;0.258;2022-09-17T02:29:53;9.80;99.90
27423;DHT22;14878;50.778;0.258;2022-09-17T02:30:54;9.70;99.90
27423;DHT22;14878;50.778;0.258;2022-09-17T02:31:55;9.70;99.90
27423;DHT22;14878;50.778;0.258;2022-09-17T02:32:56;9.70;99.90
27423;DHT22;14878;50.778;0.258;2022-09-17T02:34:00;9.80;99.90
27423;DHT22;14878;50.778;0.258;2022-09-17T02:35:02;9.70;99.90
27423;DHT22;14878;50.778;0.258;2022-09-17T02:36:03;9.80;99.90
27423;DHT22;14878;50.778;0.258;2022-09-17T02:37:05;9.80;99.90
27423;DHT22;14878;50.778;0.258;2022-09-17T02:38:06;9.80;99.90
27423;DHT22;14878;50.778;0.258;2022-09-17T02:39:08;9.80;99.90
27423;DHT22;14878;50.778;0.258;2022-09-17T02:40:13;9.70;99.90
27423;DHT22;14878;50.778;0.258;2022-09-17T02:41:21;9.70;99.90
27423;DHT22;14878;50.778;0.258;2022-09-17T02:43:59;9.70;99.90
27423;DHT22;14878;50.778;0.258;2022-09-17T02:45:24;9.70;99.90
27423;DHT22;14878;50.778;0.258;2022-09-17T02:49:05;9.60;99.90
27423;DHT22;14878;50.778;0.258;2022-09-17T02:54:15;9.50;99.90
27423;DHT22;14878;50.778;0.258;2022-09-17T02:56:48;9.40;99.90
27423;DHT22;14878;50.778;0.258;2022-09-17T02:58:21;9.40;99.90
27423;DHT22;14878;50.778;0.258;2022-09-17T02:59:25;9.50;99.90
27423;DHT22;14878;50.778;0.258;2022-09-17T03:00:26;9.40;99.90
27423;DHT22;14878;50.778;0.258;2022-09-17T03:01:28;9.50;99.90
27423;DHT22;14878;50.778;0.258;2022-09-17T03:02:48;9.30;99.90
27423;DHT22;14878;50.778;0.258;2022-09-17T03:03:50;9.30;99.90
27423;DHT22;14878;50.778;0.258;2022-09-17T03:04:52;9.50;99.90
27423;DHT22;14878;50.778;0.258;2022-09-17T03:05:54;9.40;99.90
27423;DHT22;14878;50.778;0.258;2022-09-17T03:06:56;9.30;99.90
27423;DHT22;14878;50.778;0.258;2022-09-17T03:07:59;9.40;99.90
27423;DHT22;14878;50.778;0.258;2022-09-17T03:09:00;9.50;99.90
27423;DHT22;14878;50.778;0.258;2022-09-17T03:10:01;9.40;99.90
27423;DHT22;14878;50.778;0.258;2022-09-17T03:11:02;9.40;99.90
27423;DHT22;14878;50.778;0.258;2022-09-17T03:12:04;9.30;99.90
27423;DHT22;14878;50.778;0.258;2022-09-17T03:13:05;9.40;99.90
27423;DHT22;14878;50.778;0.258;2022-09-17T03:14:06;9.30;99.90
27423;DHT22;14878;50.778;0.258;2022-09-17T03:15:07;9.30;99.90
27423;DHT22;14878;50.778;0.258;2022-09-17T03:16:08;9.40;99.90
27423;DHT22;14878;50.778;0.258;2022-09-17T03:17:10;9.40;99.90
27423;DHT22;14878;50.778;0.258;2022-09-17T03:18:11;9.10;99.90
27423;DHT22;14878;50.778;0.258;2022-09-17T03:19:12;9.40;99.90
27423;DHT22;14878;50.778;0.258;2022-09-17T03:20:12;9.40;99.90
27423;DHT22;14878;50.778;0.258;2022-09-17T03:21:15;9.40;99.90
27423;DHT22;14878;50.778;0.258;2022-09-17T03:22:16;11.20;99.90
27423;DHT22;14878;50.778;0.258;2022-09-17T03:23:17;9.30;99.90
27423;DHT22;14878;50.778;0.258;2022-09-17T03:24:17;9.30;99.90
27423;DHT22;14878;50.778;0.258;2022-09-17T03:25:18;9.30;99.90
27423;DHT22;14878;50.778;0.258;2022-09-17T03:26:19;9.30;99.90
27423;DHT22;14878;50.778;0.258;2022-09-17T03:27:20;9.40;99.90
27423;DHT22;14878;50.778;0.258;2022-09-17T03:28:21;9.40;99.90
27423;DHT22;14878;50.778;0.258;2022-09-17T03:29:22;9.40;99.90
27423;DHT22;14878;50.778;0.258;2022-09-17T03:30:22;9.40;99.90
27423;DHT22;14878;50.778;0.258;2022-09-17T03:31:23;9.40;99.90
27423;DHT22;14878;50.778;0.258;2022-09-17T03:32:24;9.20;99.90
27423;DHT22;14878;50.778;0.258;2022-09-17T03:33:25;9.30;99.90
27423;DHT22;14878;50.778;0.258;2022-09-17T03:34:26;9.30;99.90
27423;DHT22;14878;50.778;0.258;2022-09-17T03:35:26;9.30;99.90
27423;DHT22;14878;50.778;0.258;2022-09-17T03:36:27;9.40;99.90
27423;DHT22;14878;50.778;0.258;2022-09-17T03:37:28;9.30;99.90
27423;DHT22;14878;50.778;0.258;2022-09-17T03:38:28;9.30;99.90
27423;DHT22;14878;50.778;0.258;2022-09-17T03:39:29;9.30;99.90
27423;DHT22;14878;50.778;0.258;2022-09-17T03:40:30;9.40;99.90
27423;DHT22;14878;50.778;0.258;2022-09-17T03:41:31;9.30;99.90
27423;DHT22;14878;50.778;0.258;2022-09-17T03:42:32;9.30;99.90
27423;DHT22;14878;50.778;0.258;2022-09-17T03:43:33;9.30;99.90
27423;DHT22;14878;50.778;0.258;2022-09-17T03:44:34;9.40;99.90
27423;DHT22;14878;50.778;0.258;2022-09-17T03:45:35;9.30;99.90
27423;DHT22;14878;50.778;0.258;2022-09-17T03:46:36;9.20;99.90
27423;DHT22;14878;50.778;0.258;2022-09-17T03:47:37;9.20;99.90
27423;DHT22;14878;50.778;0.258;2022-09-17T03:48:37;10.20;99.90
27423;DHT22;14878;50.778;0.258;2022-09-17T03:49:39;9.10;99.90
27423;DHT22;14878;50.778;0.258;2022-09-17T03:50:40;9.20;99.90
27423;DHT22;14878;50.778;0.258;2022-09-17T03:51:40;9.20;99.90
27423;DHT22;14878;50.778;0.258;2022-09-17T03:52:42;9.10;99.90
27423;DHT22;14878;50.778;0.258;2022-09-17T03:53:45;9.10;99.90
27423;DHT22;14878;50.778;0.258;2022-09-17T03:54:46;9.00;99.90
27423;DHT22;14878;50.778;0.258;2022-09-17T03:55:46;9.10;99.90
27423;DHT22;14878;50.778;0.258;2022-09-17T03:56:47;9.10;99.90
27423;DHT22;14878;50.778;0.258;2022-09-17T03:57:48;9.10;99.90
27423;DHT22;14878;50.778;0.258;2022-09-17T03:58:49;9.10;99.90
27423;DHT22;14878;50.778;0.258;2022-09-17T03:59:49;9.10;99.90
27423;DHT22;14878;50.778;0.258;2022-09-17T04:00:50;9.00;99.90
27423;DHT22;14878;50.778;0.258;2022-09-17T04:01:52;9.00;99.90
27423;DHT22;14878;50.778;0.258;2022-09-17T04:02:53;9.10;99.90
27423;DHT22;14878;50.778;0.258;2022-09-17T04:03:54;9.10;99.90
27423;DHT22;14878;50.778;0.258;2022-09-17T04:04:55;9.10;99.90
27423;DHT22;14878;50.778;0.258;2022-09-17T04:05:56;9.10;99.90
27423;DHT22;14878;50.778;0.258;2022-09-17T04:06:57;9.10;99.90
27423;DHT22;14878;50.778;0.258;2022-09-17T04:07:57;9.00;99.90
27423;DHT22;14878;50.778;0.258;2022-09-17T04:08:58;9.00;99.90
27423;DHT22;14878;50.778;0.258;2022-09-17T04:10:00;9.10;99.90
27423;DHT22;14878;50.778;0.258;2022-09-17T04:11:01;9.00;99.90
27423;DHT22;14878;50.778;0.258;2022-09-17T04:12:03;9.20;99.90
27423;DHT22;14878;50.778;0.258;2022-09-17T04:13:03;9.00;99.90
27423;DHT22;14878;50.778;0.258;2022-09-17T04:14:04;9.20;99.90
27423;DHT22;14878;50.778;0.258;2022-09-17T04:15:06;9.10;99.90
27423;DHT22;14878;50.778;0.258;2022-09-17T04:16:07;9.10;99.90
27423;DHT22;14878;50.778;0.258;2022-09-17T04:17:07;9.20;99.90
27423;DHT22;14878;50.778;0.258;2022-09-17T04:18:08;9.10;99.90
27423;DHT22;14878;50.778;0.258;2022-09-17T04:19:09;9.60;99.90
27423;DHT22;14878;50.778;0.258;2022-09-17T04:20:10;9.10;99.90
27423;DHT22;14878;50.778;0.258;2022-09-17T04:21:11;9.00;99.90
27423;DHT22;14878;50.778;0.258;2022-09-17T04:22:12;9.20;99.90
27423;DHT22;14878;50.778;0.258;2022-09-17T04:23:12;9.20;99.90
27423;DHT22;14878;50.778;0.258;2022-09-17T04:24:13;9.20;99.90
27423;DHT22;14878;50.778;0.258;2022-09-17T04:25:14;9.40;99.90
27423;DHT22;14878;50.778;0.258;2022-09-17T04:26:15;9.20;99.90
27423;DHT22;14878;50.778;0.258;2022-09-17T04:27:15;9.10;99.90
27423;DHT22;14878;50.778;0.258;2022-09-17T04:28:16;9.20;99.90
27423;DHT22;14878;50.778;0.258;2022-09-17T04:29:17;9.10;99.90
27423;DHT22;14878;50.778;0.258;2022-09-17T04:30:18;9.20;99.90
27423;DHT22;14878;50.778;0.258;2022-09-17T04:31:18;9.20;99.90
27423;DHT22;14878;50.778;0.258;2022-09-17T04:32:19;9.10;99.90
27423;DHT22;14878;50.778;0.258;2022-09-17T04:33:20;9.10;99.90
27423;DHT22;14878;50.778;0.258;2022-09-17T04:34:21;9.20;99.90
27423;DHT22;14878;50.778;0.258;2022-09-17T04:35:22;9.30;99.90
27423;DHT22;14878;50.778;0.258;2022-09-17T04:36:22;9.20;99.90
27423;DHT22;14878;50.778;0.258;2022-09-17T04:37:23;9.10;99.90
27423;DHT22;14878;50.778;0.258;2022-09-17T04:38:25;9.20;99.90
27423;DHT22;14878;50.778;0.258;2022-09-17T04:39:26;9.20;99.90
27423;DHT22;14878;50.778;0.258;2022-09-17T04:40:27;9.20;99.90
27423;DHT22;14878;50.778;0.258;2022-09-17T04:41:28;9.20;99.90
27423;DHT22;14878;50.778;0.258;2022-09-17T04:42:28;9.20;99.90
27423;DHT22;14878;50.778;0.258;2022-09-17T04:43:29;9.20;99.90
27423;DHT22;14878;50.778;0.258;2022-09-17T04:44:30;9.20;99.90
27423;DHT22;14878;50.778;0.258;2022-09-17T04:45:31;9.10;99.90
27423;DHT22;14878;50.778;0.258;2022-09-17T04:46:32;9.10;99.90
27423;DHT22;14878;50.778;0.258;2022-09-17T04:47:36;9.20;99.90
27423;DHT22;14878;50.778;0.258;2022-09-17T04:48:37;9.20;99.90
27423;DHT22;14878;50.778;0.258;2022-09-17T04:49:38;9.10;99.90
27423;DHT22;14878;50.778;0.258;2022-09-17T04:50:39;9.20;99.90
27423;DHT22;14878;50.778;0.258;2022-09-17T04:51:39;9.20;99.90
27423;DHT22;14878;50.778;0.258;2022-09-17T04:52:44;9.30;99.90
27423;DHT22;14878;50.778;0.258;2022-09-17T04:53:45;9.10;99.90
27423;DHT22;14878;50.778;0.258;2022-09-17T04:54:46;9.00;99.90
27423;DHT22;14878;50.778;0.258;2022-09-17T04:55:46;9.10;99.90
27423;DHT22;14878;50.778;0.258;2022-09-17T04:56:47;9.10;99.90
27423;DHT22;14878;50.778;0.258;2022-09-17T04:57:49;9.10;99.90
27423;DHT22;14878;50.778;0.258;2022-09-17T04:58:50;9.10;99.90
27423;DHT22;14878;50.778;0.258;2022-09-17T04:59:51;9.10;99.90
27423;DHT22;14878;50.778;0.258;2022-09-17T05:00:51;9.00;99.90
27423;DHT22;14878;50.778;0.258;2022-09-17T05:01:52;9.00;99.90
27423;DHT22;14878;50.778;0.258;2022-09-17T05:02:54;9.10;99.90
27423;DHT22;14878;50.778;0.258;2022-09-17T05:03:55;9.00;99.90
27423;DHT22;14878;50.778;0.258;2022-09-17T05:04:56;9.10;99.90
27423;DHT22;14878;50.778;0.258;2022-09-17T05:05:56;9.30;99.90
27423;DHT22;14878;50.778;0.258;2022-09-17T05:06:57;9.00;99.90
27423;DHT22;14878;50.778;0.258;2022-09-17T05:07:58;9.00;99.90
27423;DHT22;14878;50.778;0.258;2022-09-17T05:08:59;9.00;99.90
27423;DHT22;14878;50.778;0.258;2022-09-17T05:10:01;9.00;99.90
27423;DHT22;14878;50.778;0.258;2022-09-17T05:11:02;9.00;99.90
27423;DHT22;14878;50.778;0.258;2022-09-17T05:12:03;8.90;99.90
27423;DHT22;14878;50.778;0.258;2022-09-17T05:13:04;8.90;99.90
27423;DHT22;14878;50.778;0.258;2022-09-17T05:14:05;9.00;99.90
27423;DHT22;14878;50.778;0.258;2022-09-17T05:15:06;8.90;99.90
27423;DHT22;14878;50.778;0.258;2022-09-17T05:16:07;8.90;99.90
27423;DHT22;14878;50.778;0.258;2022-09-17T05:17:07;8.80;99.90
27423;DHT22;14878;50.778;0.258;2022-09-17T05:18:08;8.80;99.90
27423;DHT22;14878;50.778;0.258;2022-09-17T05:19:09;8.90;99.90
27423;DHT22;14878;50.778;0.258;2022-09-17T05:20:10;8.90;99.90
27423;DHT22;14878;50.778;0.258;2022-09-17T05:21:11;8.90;99.90
27423;DHT22;14878;50.778;0.258;2022-09-17T05:22:12;8.90;99.90
27423;DHT22;14878;50.778;0.258;2022-09-17T05:23:13;8.90;99.90
27423;DHT22;14878;50.778;0.258;2022-09-17T05:24:14;8.90;99.90
27423;DHT22;14878;50.778;0.258;2022-09-17T05:25:16;8.90;99.90
27423;DHT22;14878;50.778;0.258;2022-09-17T05:26:17;8.80;99.90
27423;DHT22;14878;50.778;0.258;2022-09-17T05:27:18;8.10;99.90
27423;DHT22;14878;50.778;0.258;2022-09-17T05:28:18;8.90;99.90
27423;DHT22;14878;50.778;0.258;2022-09-17T05:29:19;8.80;99.90
27423;DHT22;14878;50.778;0.258;2022-09-17T05:30:20;8.80;99.90
27423;DHT22;14878;50.778;0.258;2022-09-17T05:31:21;8.80;99.90
27423;DHT22;14878;50.778;0.258;2022-09-17T05:32:22;8.80;99.90
27423;DHT22;14878;50.778;0.258;2022-09-17T05:33:23;8.80;99.90
27423;DHT22;14878;50.778;0.258;2022-09-17T05:34:23;8.80;99.90
27423;DHT22;14878;50.778;0.258;2022-09-17T05:35:24;8.80;99.90
27423;DHT22;14878;50.778;0.258;2022-09-17T05:36:25;8.80;99.90
27423;DHT22;14878;50.778;0.258;2022-09-17T05:37:26;8.80;99.90
27423;DHT22;14878;50.778;0.258;2022-09-17T05:38:26;8.60;99.90
27423;DHT22;14878;50.778;0.258;2022-09-17T05:39:27;10.70;99.90
27423;DHT22;14878;50.778;0.258;2022-09-17T05:40:29;8.70;99.90
27423;DHT22;14878;50.778;0.258;2022-09-17T05:41:29;8.70;99.90
27423;DHT22;14878;50.778;0.258;2022-09-17T05:42:30;8.70;99.90
27423;DHT22;14878;50.778;0.258;2022-09-17T05:43:32;8.80;99.90
27423;DHT22;14878;50.778;0.258;2022-09-17T05:44:33;8.70;99.90
27423;DHT22;14878;50.778;0.258;2022-09-17T05:45:34;8.80;99.90
27423;DHT22;14878;50.778;0.258;2022-09-17T05:46:35;8.70;99.90
27423;DHT22;14878;50.778;0.258;2022-09-17T05:47:36;8.80;99.90
27423;DHT22;14878;50.778;0.258;2022-09-17T05:48:37;8.90;99.90
27423;DHT22;14878;50.778;0.258;2022-09-17T05:49:39;8.80;99.90
27423;DHT22;14878;50.778;0.258;2022-09-17T05:50:40;8.80;99.90
27423;DHT22;14878;50.778;0.258;2022-09-17T05:51:41;8.80;99.90
27423;DHT22;14878;50.778;0.258;2022-09-17T05:52:42;8.90;99.90
27423;DHT22;14878;50.778;0.258;2022-09-17T05:53:43;8.80;99.90
27423;DHT22;14878;50.778;0.258;2022-09-17T05:54:43;8.90;99.90
27423;DHT22;14878;50.778;0.258;2022-09-17T05:55:44;8.90;99.90
27423;DHT22;14878;50.778;0.258;2022-09-17T05:56:45;8.80;99.90
27423;DHT22;14878;50.778;0.258;2022-09-17T05:57:46;8.80;99.90
27423;DHT22;14878;50.778;0.258;2022-09-17T05:58:46;8.90;99.90
27423;DHT22;14878;50.778;0.258;2022-09-17T05:59:47;8.70;99.90
27423;DHT22;14878;50.778;0.258;2022-09-17T06:00:48;8.90;99.90
27423;DHT22;14878;50.778;0.258;2022-09-17T06:01:49;8.80;99.90
27423;DHT22;14878;50.778;0.258;2022-09-17T06:02:54;7.40;99.90
27423;DHT22;14878;50.778;0.258;2022-09-17T06:03:55;9.00;99.90
27423;DHT22;14878;50.778;0.258;2022-09-17T06:04:56;8.90;99.90
27423;DHT22;14878;50.778;0.258;2022-09-17T06:06:00;9.00;99.90
27423;DHT22;14878;50.778;0.258;2022-09-17T06:07:04;9.00;99.90
27423;DHT22;14878;50.778;0.258;2022-09-17T06:08:07;9.00;99.90
27423;DHT22;14878;50.778;0.258;2022-09-17T06:09:09;9.10;99.90
27423;DHT22;14878;50.778;0.258;2022-09-17T06:10:10;9.00;99.90
27423;DHT22;14878;50.778;0.258;2022-09-17T06:11:11;9.20;99.90
27423;DHT22;14878;50.778;0.258;2022-09-17T06:12:11;9.20;99.90
27423;DHT22;14878;50.778;0.258;2022-09-17T06:13:12;9.20;99.90
27423;DHT22;14878;50.778;0.258;2022-09-17T06:14:13;9.30;99.90
27423;DHT22;14878;50.778;0.258;2022-09-17T06:15:15;9.20;99.90
27423;DHT22;14878;50.778;0.258;2022-09-17T06:16:15;9.20;99.90
27423;DHT22;14878;50.778;0.258;2022-09-17T06:17:16;9.20;99.90
27423;DHT22;14878;50.778;0.258;2022-09-17T06:18:17;9.40;99.90
27423;DHT22;14878;50.778;0.258;2022-09-17T06:19:18;9.30;99.90
27423;DHT22;14878;50.778;0.258;2022-09-17T06:20:20;9.40;99.90
27423;DHT22;14878;50.778;0.258;2022-09-17T06:21:21;9.30;99.90
27423;DHT22;14878;50.778;0.258;2022-09-17T06:22:22;9.40;99.90
27423;DHT22;14878;50.778;0.258;2022-09-17T06:23:23;9.30;99.90
27423;DHT22;14878;50.778;0.258;2022-09-17T06:24:24;9.30;99.90
27423;DHT22;14878;50.778;0.258;2022-09-17T06:25:25;9.40;99.90
27423;DHT22;14878;50.778;0.258;2022-09-17T06:26:26;9.40;99.90
27423;DHT22;14878;50.778;0.258;2022-09-17T06:27:31;9.60;99.90
27423;DHT22;14878;50.778;0.258;2022-09-17T06:28:32;9.60;99.90
27423;DHT22;14878;50.778;0.258;2022-09-17T06:29:33;9.60;99.90
27423;DHT22;14878;50.778;0.258;2022-09-17T06:30:35;9.60;99.90
27423;DHT22;14878;50.778;0.258;2022-09-17T06:31:36;9.60;99.90
27423;DHT22;14878;50.778;0.258;2022-09-17T06:32:37;9.70;99.90
27423;DHT22;14878;50.778;0.258;2022-09-17T06:33:38;9.70;99.90
27423;DHT22;14878;50.778;0.258;2022-09-17T06:34:39;9.70;99.90
27423;DHT22;14878;50.778;0.258;2022-09-17T06:35:39;10.00;99.90
27423;DHT22;14878;50.778;0.258;2022-09-17T06:36:40;9.90;99.90
27423;DHT22;14878;50.778;0.258;2022-09-17T06:37:41;10.00;99.90
27423;DHT22;14878;50.778;0.258;2022-09-17T06:38:42;10.00;99.90
27423;DHT22;14878;50.778;0.258;2022-09-17T06:39:42;10.00;99.90
27423;DHT22;14878;50.778;0.258;2022-09-17T06:40:49;10.00;99.90
27423;DHT22;14878;50.778;0.258;2022-09-17T06:41:51;10.00;99.90
27423;DHT22;14878;50.778;0.258;2022-09-17T06:42:58;10.10;99.90
27423;DHT22;14878;50.778;0.258;2022-09-17T06:43:59;10.10;99.90
27423;DHT22;14878;50.778;0.258;2022-09-17T06:45:01;10.20;99.90
27423;DHT22;14878;50.778;0.258;2022-09-17T06:46:04;10.20;99.90
27423;DHT22;14878;50.778;0.258;2022-09-17T06:47:05;10.20;99.90
27423;DHT22;14878;50.778;0.258;2022-09-17T06:48:07;10.30;99.90
27423;DHT22;14878;50.778;0.258;2022-09-17T06:49:08;10.20;99.90
27423;DHT22;14878;50.778;0.258;2022-09-17T06:50:09;10.20;99.90
27423;DHT22;14878;50.778;0.258;2022-09-17T06:51:10;10.20;99.90
27423;DHT22;14878;50.778;0.258;2022-09-17T06:52:11;10.20;99.90
27423;DHT22;14878;50.778;0.258;2022-09-17T06:53:12;10.30;99.90
27423;DHT22;14878;50.778;0.258;2022-09-17T06:54:13;10.40;99.90
27423;DHT22;14878;50.778;0.258;2022-09-17T06:55:14;10.40;99.90
27423;DHT22;14878;50.778;0.258;2022-09-17T06:56:15;10.40;99.90
27423;DHT22;14878;50.778;0.258;2022-09-17T06:57:17;10.50;99.90
27423;DHT22;14878;50.778;0.258;2022-09-17T06:58:18;10.30;99.90
27423;DHT22;14878;50.778;0.258;2022-09-17T06:59:18;10.30;99.90
27423;DHT22;14878;50.778;0.258;2022-09-17T07:00:19;10.50;99.90
27423;DHT22;14878;50.778;0.258;2022-09-17T07:01:20;10.50;99.90
27423;DHT22;14878;50.778;0.258;2022-09-17T07:02:21;10.40;99.90
27423;DHT22;14878;50.778;0.258;2022-09-17T07:03:22;10.60;99.90
27423;DHT22;14878;50.778;0.258;2022-09-17T07:04:23;10.70;99.90
27423;DHT22;14878;50.778;0.258;2022-09-17T07:05:24;10.80;99.90
27423;DHT22;14878;50.778;0.258;2022-09-17T07:06:25;10.80;99.90
27423;DHT22;14878;50.778;0.258;2022-09-17T07:07:26;10.80;99.90
27423;DHT22;14878;50.778;0.258;2022-09-17T07:08:26;10.80;99.90
27423;DHT22;14878;50.778;0.258;2022-09-17T07:09:27;10.90;99.90
27423;DHT22;14878;50.778;0.258;2022-09-17T07:10:29;10.80;99.90
27423;DHT22;14878;50.778;0.258;2022-09-17T07:11:30;10.80;99.90
27423;DHT22;14878;50.778;0.258;2022-09-17T07:12:31;10.90;99.90
27423;DHT22;14878;50.778;0.258;2022-09-17T07:13:32;10.90;99.90
27423;DHT22;14878;50.778;0.258;2022-09-17T07:14:33;10.90;99.90
27423;DHT22;14878;50.778;0.258;2022-09-17T07:15:34;11.00;99.90
27423;DHT22;14878;50.778;0.258;2022-09-17T07:16:34;10.90;99.90
27423;DHT22;14878;50.778;0.258;2022-09-17T07:17:37;11.00;99.90
27423;DHT22;14878;50.778;0.258;2022-09-17T07:18:39;11.10;99.90